createdAt,value
2019-02-11T00:00:19.766Z,0.50
2019-02-11T00:02:47.834Z,0.50
2019-02-11T00:05:16.253Z,0.53
2019-02-11T00:07:44.164Z,0.50
2019-02-11T00:10:12.241Z,0.55
2019-02-11T00:12:40.219Z,0.70
2019-02-11T00:15:08.596Z,0.40
2019-02-11T00:17:36.561Z,0.50
2019-02-11T00:20:04.851Z,0.55
2019-02-11T00:22:33.004Z,0.60
2019-02-11T00:25:01.011Z,0.50
2019-02-11T00:27:28.974Z,0.57
2019-02-11T00:29:56.828Z,0.65
2019-02-11T00:32:25.309Z,0.50
2019-02-11T00:34:53.183Z,0.60
2019-02-11T00:37:21.070Z,0.50
2019-02-11T00:39:49.372Z,0.60
2019-02-11T00:42:17.281Z,0.53
2019-02-11T00:44:45.236Z,0.80
2019-02-11T00:47:13.713Z,0.60
2019-02-11T00:49:41.771Z,0.68
2019-02-11T00:52:10.077Z,0.65
2019-02-11T00:54:38.054Z,0.60
2019-02-11T00:57:06.115Z,0.62
2019-02-11T00:59:34.570Z,0.62
2019-02-11T01:02:02.684Z,0.60
2019-02-11T01:04:30.660Z,0.80
2019-02-11T01:06:58.606Z,0.80
2019-02-11T01:09:26.445Z,0.65
2019-02-11T01:11:54.536Z,0.70
2019-02-11T01:14:22.695Z,0.70
2019-02-11T01:16:50.639Z,0.70
2019-02-11T01:19:18.580Z,0.57
2019-02-11T01:21:46.464Z,0.78
2019-02-11T01:24:14.351Z,0.60
2019-02-11T01:26:42.580Z,0.53
2019-02-11T01:29:10.557Z,0.60
2019-02-11T01:31:38.627Z,0.80
2019-02-11T01:34:06.549Z,0.60
2019-02-11T01:36:34.495Z,0.70
2019-02-11T01:39:03.847Z,0.50
2019-02-11T01:41:31.816Z,0.50
2019-02-11T01:43:59.755Z,0.57
2019-02-11T01:46:27.656Z,0.70
2019-02-11T01:48:55.539Z,0.70
2019-02-11T01:51:23.462Z,0.62
2019-02-11T01:53:51.806Z,0.60
2019-02-11T01:56:19.698Z,0.75
2019-02-11T01:58:47.665Z,0.60
2019-02-11T02:01:15.529Z,0.55
2019-02-11T02:03:43.501Z,0.90
2019-02-11T02:06:11.379Z,1.22
2019-02-11T02:08:39.828Z,0.70
2019-02-11T02:11:07.931Z,0.80
2019-02-11T02:13:44.454Z,0.82
2019-02-11T02:16:05.678Z,1.10
2019-02-11T02:18:33.655Z,0.78
2019-02-11T02:21:01.771Z,0.80
2019-02-11T02:23:29.918Z,0.93
2019-02-11T02:25:58.304Z,1.00
2019-02-11T02:28:26.340Z,0.80
2019-02-11T02:30:54.200Z,1.02
2019-02-11T02:33:22.185Z,0.82
2019-02-11T02:35:50.160Z,0.80
2019-02-11T02:38:18.538Z,0.98
2019-02-11T02:40:46.447Z,1.15
2019-02-11T02:43:14.541Z,1.35
2019-02-11T02:45:42.487Z,0.90
2019-02-11T02:48:10.723Z,1.10
2019-02-11T02:50:38.744Z,0.70
2019-02-11T02:53:06.951Z,1.10
2019-02-11T02:55:34.847Z,1.35
2019-02-11T02:58:03.633Z,1.25
2019-02-11T03:00:31.791Z,1.50
2019-02-11T03:02:59.675Z,1.10
2019-02-11T03:05:27.694Z,1.20
2019-02-11T03:07:55.680Z,1.20
2019-02-11T03:10:23.503Z,1.55
2019-02-11T03:12:51.467Z,1.10
2019-02-11T03:15:19.450Z,1.60
2019-02-11T03:17:47.480Z,1.10
2019-02-11T03:20:15.708Z,1.17
2019-02-11T03:22:43.753Z,1.40
2019-02-11T03:25:11.787Z,1.10
2019-02-11T03:27:39.832Z,1.32
2019-02-11T03:30:08.174Z,1.52
2019-02-11T03:32:36.608Z,1.60
2019-02-11T03:35:04.629Z,1.10
2019-02-11T03:37:32.664Z,1.42
2019-02-11T03:40:00.636Z,1.42
2019-02-11T03:42:28.489Z,1.67
2019-02-11T03:44:56.456Z,2.20
2019-02-11T03:47:24.746Z,1.50
2019-02-11T03:49:52.676Z,1.95
2019-02-11T03:52:20.747Z,1.50
2019-02-11T03:54:49.147Z,1.70
2019-02-11T03:57:17.375Z,1.60
2019-02-11T03:59:45.416Z,1.42
2019-02-11T04:02:14.422Z,1.65
2019-02-11T04:04:42.563Z,1.45
2019-02-11T04:07:10.689Z,1.30
2019-02-11T04:09:38.634Z,1.47
2019-02-11T04:12:06.844Z,1.60
2019-02-11T04:14:34.711Z,2.12
2019-02-11T04:17:03.169Z,1.35
2019-02-11T04:19:31.059Z,2.10
2019-02-11T04:22:08.597Z,1.57
2019-02-11T04:24:36.449Z,1.35
2019-02-11T04:27:04.660Z,1.75
2019-02-11T04:29:32.557Z,1.20
2019-02-11T04:32:00.387Z,1.67
2019-02-11T04:34:28.336Z,1.52
2019-02-11T04:36:56.330Z,1.35
2019-02-11T04:39:24.248Z,1.35
2019-02-11T04:41:52.363Z,1.52
2019-02-11T04:44:20.223Z,1.50
2019-02-11T04:46:48.135Z,1.60
2019-02-11T04:49:16.125Z,1.70
2019-02-11T04:51:44.040Z,2.42
2019-02-11T04:54:11.963Z,1.95
2019-02-11T04:56:39.859Z,1.40
2019-02-11T04:59:07.960Z,1.52
2019-02-11T05:01:35.905Z,1.22
2019-02-11T05:04:03.799Z,1.20
2019-02-11T05:06:31.725Z,1.30
2019-02-11T05:08:59.632Z,1.10
2019-02-11T05:11:27.518Z,1.40
2019-02-11T05:13:55.641Z,1.45
2019-02-11T05:16:24.028Z,1.10
2019-02-11T05:18:52.142Z,1.25
2019-02-11T05:21:20.478Z,1.47
2019-02-11T05:23:48.414Z,2.15
2019-02-11T05:26:16.361Z,2.33
2019-02-11T05:28:44.467Z,2.12
2019-02-11T05:31:12.390Z,2.60
2019-02-11T05:33:40.321Z,2.80
2019-02-11T05:36:08.203Z,2.65
2019-02-11T05:38:36.770Z,3.50
2019-02-11T05:41:04.812Z,2.60
2019-02-11T05:43:33.113Z,3.20
2019-02-11T05:46:01.048Z,3.83
2019-02-11T05:48:29.112Z,3.22
2019-02-11T05:50:57.227Z,3.37
2019-02-11T05:53:25.160Z,3.55
2019-02-11T05:55:53.062Z,2.90
2019-02-11T05:58:21.087Z,3.90
2019-02-11T06:00:48.994Z,3.55
2019-02-11T06:03:16.921Z,4.45
2019-02-11T06:05:45.234Z,4.92
2019-02-11T06:08:13.203Z,4.53
2019-02-11T06:10:41.092Z,4.47
2019-02-11T06:13:09.370Z,4.22
2019-02-11T06:15:37.506Z,4.20
2019-02-11T06:18:05.560Z,3.90
2019-02-11T06:20:33.701Z,3.92
2019-02-11T06:23:01.901Z,4.28
2019-02-11T06:25:29.900Z,3.90
2019-02-11T06:27:58.420Z,4.22
2019-02-11T06:30:26.508Z,4.45
2019-02-11T06:32:55.053Z,4.33
2019-02-11T06:35:23.027Z,4.08
2019-02-11T06:37:51.019Z,3.80
2019-02-11T06:40:19.239Z,3.85
2019-02-11T06:42:47.390Z,4.37
2019-02-11T06:45:15.354Z,4.83
2019-02-11T06:47:43.345Z,3.67
2019-02-11T06:50:13.191Z,3.58
2019-02-11T06:52:43.076Z,2.60
2019-02-11T06:55:11.368Z,2.05
2019-02-11T06:57:39.426Z,1.95
2019-02-11T07:00:10.395Z,1.77
2019-02-11T07:02:38.647Z,1.95
2019-02-11T07:05:06.856Z,1.60
2019-02-11T07:07:36.682Z,1.62
2019-02-11T07:10:06.042Z,1.80
2019-02-11T07:12:34.158Z,1.60
2019-02-11T07:15:02.171Z,2.40
2019-02-11T07:17:30.246Z,1.80
2019-02-11T07:19:58.456Z,1.45
2019-02-11T07:22:26.513Z,2.05
2019-02-11T07:24:54.439Z,1.40
2019-02-11T07:27:22.524Z,1.92
2019-02-11T07:29:50.494Z,1.62
2019-02-11T07:32:18.579Z,1.77
2019-02-11T07:34:46.463Z,1.57
2019-02-11T07:37:14.379Z,1.60
2019-02-11T07:39:42.379Z,1.60
2019-02-11T07:42:24.367Z,1.70
2019-02-11T07:44:58.221Z,1.40
2019-02-11T07:47:26.178Z,1.60
2019-02-11T07:49:54.055Z,1.87
2019-02-11T07:52:26.853Z,1.50
2019-02-11T07:54:51.935Z,2.27
2019-02-11T07:57:19.909Z,1.50
2019-02-11T07:59:47.971Z,1.67
2019-02-11T08:02:16.103Z,1.87
2019-02-11T08:04:44.340Z,1.20
2019-02-11T08:07:12.298Z,1.45
2019-02-11T08:09:40.313Z,1.60
2019-02-11T08:12:08.315Z,2.62
2019-02-11T08:14:36.193Z,1.32
2019-02-11T08:17:04.249Z,1.57
2019-02-11T08:19:32.875Z,2.55
2019-02-11T08:22:00.694Z,1.42
2019-02-11T08:24:28.779Z,1.60
2019-02-11T08:26:56.790Z,1.60
2019-02-11T08:29:24.973Z,1.30
2019-02-11T08:31:53.230Z,1.75
2019-02-11T08:34:21.748Z,1.15
2019-02-11T08:36:49.908Z,1.60
2019-02-11T08:39:17.884Z,1.30
2019-02-11T08:41:45.846Z,1.80
2019-02-11T08:44:13.854Z,1.20
2019-02-11T08:46:41.882Z,2.10
2019-02-11T08:49:10.407Z,1.72
2019-02-11T08:51:38.345Z,1.45
2019-02-11T08:54:07.034Z,1.67
2019-02-11T08:56:34.919Z,1.32
2019-02-11T08:59:02.973Z,1.40
2019-02-11T09:01:30.892Z,1.55
2019-02-11T09:03:58.852Z,1.12
2019-02-11T09:06:26.749Z,1.10
2019-02-11T09:08:54.968Z,1.02
2019-02-11T09:11:22.892Z,1.45
2019-02-11T09:13:51.123Z,1.25
2019-02-11T09:16:19.133Z,1.72
2019-02-11T09:18:47.690Z,1.20
2019-02-11T09:21:15.584Z,1.17
2019-02-11T09:23:43.702Z,1.92
2019-02-11T09:26:13.225Z,0.85
2019-02-11T09:28:41.327Z,1.10
2019-02-11T09:31:09.476Z,1.10
2019-02-11T09:33:37.658Z,1.20
2019-02-11T09:36:06.060Z,0.90
2019-02-11T09:38:34.288Z,1.55
2019-02-11T09:41:02.317Z,1.10
2019-02-11T09:43:30.275Z,2.10
2019-02-11T09:46:03.721Z,1.05
2019-02-11T09:48:28.471Z,1.10
2019-02-11T09:50:56.478Z,1.80
2019-02-11T09:53:24.877Z,1.30
2019-02-11T09:55:52.984Z,1.62
2019-02-11T09:58:21.250Z,1.10
2019-02-11T10:00:49.323Z,1.45
2019-02-11T10:03:17.250Z,1.10
2019-02-11T10:05:45.168Z,1.07
2019-02-11T10:08:13.195Z,1.50
2019-02-11T10:10:41.172Z,1.12
2019-02-11T10:13:09.606Z,1.10
2019-02-11T10:15:37.499Z,0.95
2019-02-11T10:18:05.473Z,1.02
2019-02-11T10:20:33.554Z,1.20
2019-02-11T10:23:02.486Z,1.32
2019-02-11T10:25:30.510Z,1.45
2019-02-11T10:28:02.650Z,1.40
2019-02-11T10:30:33.484Z,1.20
2019-02-11T10:33:01.701Z,1.50
2019-02-11T10:35:29.829Z,1.27
2019-02-11T10:37:57.936Z,1.10
2019-02-11T10:40:26.108Z,1.12
2019-02-11T10:42:55.435Z,1.55
2019-02-11T10:45:23.726Z,0.82
2019-02-11T10:47:51.890Z,1.10
2019-02-11T10:50:20.897Z,1.50
2019-02-11T10:52:48.956Z,1.35
2019-02-11T10:55:17.330Z,1.25
2019-02-11T10:57:45.557Z,1.02
2019-02-11T11:00:17.219Z,1.72
2019-02-11T11:02:45.187Z,1.30
2019-02-11T11:05:14.273Z,1.55
2019-02-11T11:07:42.251Z,1.37
2019-02-11T11:10:14.815Z,1.22
2019-02-11T11:12:42.950Z,1.25
2019-02-11T11:15:11.015Z,1.30
2019-02-11T11:17:38.943Z,1.42
2019-02-11T11:20:09.362Z,0.98
2019-02-11T11:22:37.357Z,1.15
2019-02-11T11:25:05.727Z,1.10
2019-02-11T11:27:33.910Z,1.22
2019-02-11T11:30:02.315Z,0.98
2019-02-11T11:32:30.361Z,1.27
2019-02-11T11:34:58.461Z,2.15
2019-02-11T11:37:26.555Z,0.95
2019-02-11T11:39:54.750Z,1.55
2019-02-11T11:42:22.927Z,0.80
2019-02-11T11:44:50.822Z,1.10
2019-02-11T11:47:18.772Z,1.25
2019-02-11T11:49:46.774Z,1.55
2019-02-11T11:52:15.176Z,1.30
2019-02-11T11:54:43.690Z,0.90
2019-02-11T11:57:11.655Z,0.95
2019-02-11T11:59:39.681Z,1.07
2019-02-11T12:02:08.154Z,0.88
2019-02-11T12:04:37.082Z,1.10
2019-02-11T12:07:04.993Z,0.80
2019-02-11T12:09:33.342Z,1.65
2019-02-11T12:12:01.526Z,1.10
2019-02-11T12:14:29.470Z,1.02
2019-02-11T12:17:02.463Z,1.07
2019-02-11T12:19:27.221Z,1.30
2019-02-11T12:21:55.190Z,1.00
2019-02-11T12:24:23.275Z,1.52
2019-02-11T12:26:51.366Z,1.12
2019-02-11T12:29:19.542Z,1.35
2019-02-11T12:31:48.069Z,2.00
2019-02-11T12:34:16.045Z,1.20
2019-02-11T12:36:43.984Z,1.20
2019-02-11T12:39:11.900Z,1.45
2019-02-11T12:41:42.897Z,1.80
2019-02-11T12:44:10.979Z,1.10
2019-02-11T12:46:38.883Z,1.00
2019-02-11T12:49:07.122Z,1.20
2019-02-11T12:51:35.231Z,1.10
2019-02-11T12:54:03.550Z,1.00
2019-02-11T12:56:31.422Z,1.22
2019-02-11T12:58:59.513Z,1.10
2019-02-11T13:01:27.498Z,0.90
2019-02-11T13:03:55.476Z,1.00
2019-02-11T13:06:23.855Z,0.82
2019-02-11T13:08:51.904Z,1.45
2019-02-11T13:11:19.869Z,1.00
2019-02-11T13:13:48.101Z,0.95
2019-02-11T13:16:16.330Z,1.60
2019-02-11T13:18:44.635Z,1.12
2019-02-11T13:21:12.621Z,1.22
2019-02-11T13:23:40.575Z,1.42
2019-02-11T13:26:09.032Z,1.57
2019-02-11T13:28:36.992Z,1.45
2019-02-11T13:31:05.499Z,1.40
2019-02-11T13:33:33.580Z,1.40
2019-02-11T13:36:01.644Z,1.25
2019-02-11T13:38:30.009Z,1.10
2019-02-11T13:40:58.294Z,1.85
2019-02-11T13:43:26.675Z,1.42
2019-02-11T13:45:55.049Z,0.90
2019-02-11T13:48:23.041Z,1.42
2019-02-11T13:50:51.162Z,1.10
2019-02-11T13:53:19.521Z,1.20
2019-02-11T13:55:48.325Z,1.35
2019-02-11T13:58:16.439Z,1.30
2019-02-11T14:00:49.727Z,1.50
2019-02-11T14:03:20.037Z,1.20
2019-02-11T14:05:47.284Z,1.65
2019-02-11T14:08:15.339Z,1.20
2019-02-11T14:10:43.651Z,1.20
2019-02-11T14:13:11.615Z,1.70
2019-02-11T14:15:41.271Z,1.25
2019-02-11T14:18:14.325Z,1.47
2019-02-11T14:20:43.115Z,1.62
2019-02-11T14:23:11.230Z,1.90
2019-02-11T14:25:45.111Z,1.77
2019-02-11T14:28:09.761Z,1.65
2019-02-11T14:30:37.846Z,1.17
2019-02-11T14:33:06.323Z,1.10
2019-02-11T14:35:34.575Z,1.15
2019-02-11T14:38:03.300Z,1.27
2019-02-11T14:40:31.788Z,0.95
2019-02-11T14:43:00.223Z,1.02
2019-02-11T14:45:29.052Z,1.10
2019-02-11T14:47:56.993Z,1.52
2019-02-11T14:50:25.271Z,1.10
2019-02-11T14:52:53.294Z,1.00
2019-02-11T14:55:21.658Z,1.87
2019-02-11T14:57:49.811Z,1.40
2019-02-11T15:00:20.204Z,1.62
2019-02-11T15:02:49.037Z,1.22
2019-02-11T15:05:17.305Z,1.75
2019-02-11T15:07:45.735Z,1.70
2019-02-11T15:10:14.465Z,1.40
2019-02-11T15:12:42.591Z,1.45
2019-02-11T15:15:10.819Z,2.05
2019-02-11T15:17:39.702Z,1.25
2019-02-11T15:20:10.596Z,1.90
2019-02-11T15:22:38.487Z,1.60
2019-02-11T15:25:09.771Z,1.57
2019-02-11T15:27:38.287Z,1.40
2019-02-11T15:30:08.557Z,1.30
2019-02-11T15:32:36.570Z,1.47
2019-02-11T15:35:04.665Z,1.07
2019-02-11T15:37:33.166Z,1.45
2019-02-11T15:40:01.209Z,1.40
2019-02-11T15:42:29.613Z,1.35
2019-02-11T15:44:57.788Z,1.40
2019-02-11T15:47:26.342Z,1.17
2019-02-11T15:49:54.770Z,2.02
2019-02-11T15:52:23.147Z,1.30
2019-02-11T15:54:51.180Z,1.57
2019-02-11T15:57:19.364Z,2.02
2019-02-11T15:59:47.263Z,2.33
2019-02-11T16:02:15.850Z,2.10
2019-02-11T16:04:43.867Z,1.40
2019-02-11T16:07:12.571Z,1.47
2019-02-11T16:09:40.832Z,1.60
2019-02-11T16:12:09.007Z,2.00
2019-02-11T16:14:37.079Z,1.47
2019-02-11T16:17:05.254Z,2.00
2019-02-11T16:19:33.879Z,1.65
2019-02-11T16:22:03.103Z,1.35
2019-02-11T16:24:32.446Z,1.72
2019-02-11T16:27:00.433Z,2.30
2019-02-11T16:29:28.797Z,1.80
2019-02-11T16:32:00.741Z,1.70
2019-02-11T16:34:26.820Z,1.72
2019-02-11T16:36:54.787Z,1.92
2019-02-11T16:39:22.912Z,1.87
2019-02-11T16:41:50.942Z,2.00
2019-02-11T16:44:19.137Z,1.95
2019-02-11T16:46:47.166Z,1.75
2019-02-11T16:49:15.217Z,2.72
2019-02-11T16:51:43.253Z,1.77
2019-02-11T16:54:11.492Z,1.82
2019-02-11T16:56:39.882Z,2.95
2019-02-11T16:59:07.860Z,2.20
2019-02-11T17:01:36.221Z,2.30
2019-02-11T17:04:04.208Z,2.30
2019-02-11T17:06:32.257Z,2.30
2019-02-11T17:09:00.842Z,2.45
2019-02-11T17:11:28.823Z,1.98
2019-02-11T17:13:57.172Z,2.37
2019-02-11T17:16:25.206Z,2.50
2019-02-11T17:18:53.414Z,2.67
2019-02-11T17:21:22.727Z,2.10
2019-02-11T17:23:50.681Z,2.47
2019-02-11T17:26:18.865Z,2.95
2019-02-11T17:28:46.881Z,3.40
2019-02-11T17:31:16.629Z,2.50
2019-02-11T17:33:44.650Z,2.67
2019-02-11T17:36:13.091Z,3.37
2019-02-11T17:38:41.121Z,3.10
2019-02-11T17:41:09.181Z,2.60
2019-02-11T17:43:37.377Z,2.10
2019-02-11T17:46:06.005Z,3.17
2019-02-11T17:48:35.916Z,6.78
2019-02-11T17:51:04.263Z,3.90
2019-02-11T17:53:32.173Z,4.65
2019-02-11T17:56:00.338Z,4.92
2019-02-11T17:58:28.933Z,4.20
2019-02-11T18:00:59.812Z,2.17
2019-02-11T18:03:27.961Z,2.58
2019-02-11T18:05:56.053Z,3.10
2019-02-11T18:08:24.476Z,2.40
2019-02-11T18:10:52.586Z,2.27
2019-02-11T18:13:20.585Z,2.67
2019-02-11T18:15:48.569Z,2.00
2019-02-11T18:18:16.815Z,2.30
2019-02-11T18:20:44.915Z,2.47
2019-02-11T18:23:13.039Z,2.47
2019-02-11T18:25:41.052Z,2.72
2019-02-11T18:28:09.141Z,2.83
2019-02-11T18:30:37.764Z,2.77
2019-02-11T18:33:05.706Z,3.60
2019-02-11T18:35:33.827Z,3.35
2019-02-11T18:38:02.303Z,3.15
2019-02-11T18:40:30.419Z,2.95
2019-02-11T18:42:59.105Z,2.47
2019-02-11T18:45:27.199Z,2.10
2019-02-11T18:47:55.351Z,2.47
2019-02-11T18:50:23.488Z,2.67
2019-02-11T18:52:51.411Z,2.67
2019-02-11T18:55:19.559Z,2.60
2019-02-11T18:57:47.570Z,2.65
2019-02-11T19:00:17.906Z,2.90
2019-02-11T19:02:46.251Z,2.62
2019-02-11T19:05:14.822Z,3.33
2019-02-11T19:07:43.261Z,4.67
2019-02-11T19:10:11.866Z,2.60
2019-02-11T19:12:40.050Z,3.33
2019-02-11T19:15:09.893Z,2.85
2019-02-11T19:17:38.125Z,2.65
2019-02-11T19:20:07.747Z,3.20
2019-02-11T19:22:35.702Z,2.58
2019-02-11T19:25:04.951Z,3.10
2019-02-11T19:27:33.318Z,3.20
2019-02-11T19:30:01.389Z,3.70
2019-02-11T19:32:30.032Z,3.05
2019-02-11T19:34:57.931Z,3.85
2019-02-11T19:37:27.641Z,4.30
2019-02-11T19:39:55.844Z,4.53
2019-02-11T19:42:24.196Z,5.12
2019-02-11T19:44:52.135Z,4.25
2019-02-11T19:47:20.334Z,4.70
2019-02-11T19:49:51.705Z,6.75
2019-02-11T19:52:18.706Z,6.25
2019-02-11T19:54:46.891Z,5.17
2019-02-11T19:57:14.973Z,5.90
2019-02-11T19:59:43.176Z,5.40
2019-02-11T20:02:15.666Z,5.10
2019-02-11T20:04:43.867Z,5.90
2019-02-11T20:07:11.880Z,4.92
2019-02-11T20:09:40.346Z,5.33
2019-02-11T20:12:08.461Z,5.40
2019-02-11T20:14:36.681Z,5.72
2019-02-11T20:17:04.626Z,6.55
2019-02-11T20:19:32.759Z,5.60
2019-02-11T20:22:03.289Z,6.65
2019-02-11T20:24:31.691Z,6.03
2019-02-11T20:27:00.244Z,5.72
2019-02-11T20:29:28.266Z,6.60
2019-02-11T20:31:56.282Z,6.90
2019-02-11T20:34:25.178Z,8.38
2019-02-11T20:36:53.443Z,9.73
2019-02-11T20:39:21.376Z,7.45
2019-02-11T20:41:49.409Z,8.08
2019-02-11T20:44:17.372Z,9.05
2019-02-11T20:46:45.565Z,9.80
2019-02-11T20:49:13.731Z,7.55
2019-02-11T20:51:41.891Z,8.95
2019-02-11T20:54:09.798Z,8.95
2019-02-11T20:56:38.055Z,10.20
2019-02-11T20:59:07.412Z,8.40
2019-02-11T21:01:36.096Z,7.97
2019-02-11T21:04:04.249Z,7.75
2019-02-11T21:06:32.219Z,7.70
2019-02-11T21:09:00.281Z,6.45
2019-02-11T21:11:28.697Z,6.72
2019-02-11T21:13:56.722Z,7.90
2019-02-11T21:16:24.802Z,7.47
2019-02-11T21:18:52.761Z,11.00
2019-02-11T21:21:20.917Z,17.25
2019-02-11T21:23:48.959Z,18.62
2019-02-11T21:26:17.436Z,15.50
2019-02-11T21:28:45.431Z,14.03
2019-02-11T21:31:13.396Z,12.33
2019-02-11T21:33:41.766Z,9.98
2019-02-11T21:36:09.811Z,6.78
2019-02-11T21:38:38.086Z,7.40
2019-02-11T21:41:06.158Z,8.08
2019-02-11T21:43:34.157Z,7.97
2019-02-11T21:46:02.194Z,8.23
2019-02-11T21:48:30.266Z,9.00
2019-02-11T21:50:58.240Z,8.20
2019-02-11T21:53:26.615Z,7.90
2019-02-11T21:55:55.068Z,7.67
2019-02-11T21:58:23.101Z,8.03
2019-02-11T22:00:51.065Z,7.75
2019-02-11T22:03:18.997Z,8.18
2019-02-11T22:05:47.062Z,8.00
2019-02-11T22:08:15.804Z,9.70
2019-02-11T22:10:44.341Z,6.62
2019-02-11T22:13:12.563Z,7.58
2019-02-11T22:15:40.586Z,7.53
2019-02-11T22:18:08.689Z,7.05
2019-02-11T22:20:36.739Z,6.95
2019-02-11T22:23:05.163Z,7.22
2019-02-11T22:25:33.090Z,6.65
2019-02-11T22:28:06.918Z,6.53
2019-02-11T22:30:34.986Z,7.05
2019-02-11T22:33:03.228Z,7.85
2019-02-11T22:35:31.293Z,7.50
2019-02-11T22:37:59.512Z,6.83
2019-02-11T22:40:27.738Z,7.42
2019-02-11T22:42:55.868Z,6.20
2019-02-11T22:45:23.866Z,6.70
2019-02-11T22:47:52.084Z,9.40
2019-02-11T22:50:20.021Z,7.92
2019-02-11T22:52:48.064Z,6.60
2019-02-11T22:55:16.107Z,7.03
2019-02-11T22:57:44.076Z,6.47
2019-02-11T23:00:42.828Z,7.05
2019-02-11T23:03:11.090Z,5.40
2019-02-11T23:05:39.330Z,5.35
2019-02-11T23:08:07.363Z,6.15
2019-02-11T23:10:35.827Z,5.80
2019-02-11T23:13:03.825Z,6.35
2019-02-11T23:15:31.955Z,5.90
2019-02-11T23:18:00.011Z,4.92
2019-02-11T23:20:28.107Z,6.05
2019-02-11T23:22:56.221Z,5.22
2019-02-11T23:25:24.735Z,5.80
2019-02-11T23:27:52.756Z,5.25
2019-02-11T23:30:20.845Z,7.10
2019-02-11T23:32:48.913Z,4.83
2019-02-11T23:35:16.879Z,5.20
2019-02-11T23:37:45.009Z,4.72
2019-02-11T23:40:12.916Z,5.70
2019-02-11T23:42:41.510Z,7.17
2019-02-11T23:45:09.708Z,4.45
2019-02-11T23:47:37.623Z,7.08
2019-02-11T23:50:05.647Z,5.80
2019-02-11T23:52:33.653Z,6.60
2019-02-11T23:55:01.737Z,7.35
2019-02-11T23:57:29.842Z,6.33
2019-02-11T23:59:57.921Z,6.03
